Time;durP1;ratioP1;P1;durP2;ratioP2;P2;SDS_P1;SDS_P2;PMS_P1;PMS_P2;Temp;Humidity;BMP_temperature;BMP_pressure;BME280_temperature;BME280_humidity;BME280_pressure;Samples;Min_cycle;Max_cycle;Signal;HPM_P1;HPM_P2
2022/05/14 00:02:03;;;;;;;3.57;3.10;;;11.30;99.90;;;;;;5000761;28;20534;-53
2022/05/14 00:04:30;;;;;;;5.50;3.60;;;11.30;99.90;;;;;;4999536;28;20842;-54
2022/05/14 00:06:57;;;;;;;9.03;3.63;;;11.30;99.90;;;;;;5002987;28;20460;-52
2022/05/14 00:09:23;;;;;;;12.90;3.63;;;11.30;99.90;;;;;;4998744;28;21057;-52
2022/05/14 00:14:34;;;;;;;5.83;3.40;;;11.20;99.90;;;;;;4996853;28;20444;-52
2022/05/14 00:17:02;;;;;;;13.77;3.63;;;11.10;99.90;;;;;;5003025;28;21012;-52
2022/05/14 00:19:29;;;;;;;7.33;3.43;;;11.10;99.90;;;;;;5007333;28;20487;-54
2022/05/14 00:21:56;;;;;;;6.67;3.07;;;11.10;99.90;;;;;;5000725;28;20806;-52
2022/05/14 00:24:23;;;;;;;9.57;3.70;;;11.10;99.90;;;;;;4999161;28;20484;-53
2022/05/14 00:26:50;;;;;;;11.37;3.43;;;11.00;99.90;;;;;;5007276;28;20455;-53
2022/05/14 00:29:17;;;;;;;4.73;3.40;;;11.00;99.90;;;;;;5007376;28;20530;-53
2022/05/14 00:31:43;;;;;;;5.53;3.60;;;11.00;99.90;;;;;;5006788;28;20557;-53
2022/05/14 00:34:11;;;;;;;5.90;3.30;;;11.00;99.90;;;;;;5002599;28;20455;-52
2022/05/14 00:36:38;;;;;;;5.37;3.03;;;11.00;99.90;;;;;;5001637;28;20516;-52
2022/05/14 00:39:04;;;;;;;4.50;3.80;;;11.00;99.90;;;;;;5002824;28;20886;-52
2022/05/14 00:41:32;;;;;;;4.73;3.77;;;11.00;99.90;;;;;;5000623;28;20467;-52
2022/05/14 00:44:00;;;;;;;5.97;3.20;;;11.00;99.90;;;;;;5000110;28;20470;-53
2022/05/14 00:46:33;;;;;;;4.13;3.03;;;11.00;99.90;;;;;;5004149;28;20460;-53
2022/05/14 00:49:00;;;;;;;4.93;4.53;;;10.90;99.90;;;;;;5007325;28;20471;-52
2022/05/14 00:51:30;;;;;;;9.03;3.53;;;10.90;99.90;;;;;;5007423;28;20467;-52
2022/05/14 00:54:01;;;;;;;4.60;2.93;;;11.00;99.90;;;;;;5004509;28;21007;-51
2022/05/14 00:56:32;;;;;;;4.47;3.10;;;10.90;99.90;;;;;;5009696;28;20515;-51
2022/05/14 00:59:06;;;;;;;3.77;3.47;;;10.90;99.90;;;;;;5007842;28;20515;-52
2022/05/14 01:01:33;;;;;;;12.97;4.87;;;11.00;99.90;;;;;;5002115;28;20464;-52
2022/05/14 01:03:59;;;;;;;4.13;3.20;;;11.00;99.90;;;;;;4999094;28;20467;-52
2022/05/14 01:06:29;;;;;;;6.70;3.63;;;11.00;99.90;;;;;;5007317;28;20485;-53
2022/05/14 01:08:59;;;;;;;7.50;3.40;;;11.00;99.90;;;;;;5015129;28;20450;-52
2022/05/14 01:11:26;;;;;;;6.60;4.00;;;11.00;99.90;;;;;;5001138;28;20464;-52
2022/05/14 01:13:53;;;;;;;8.97;3.33;;;11.10;99.90;;;;;;5003669;28;20460;-52
2022/05/14 01:16:20;;;;;;;5.70;4.03;;;11.10;99.90;;;;;;5005378;28;20903;-52
2022/05/14 01:18:48;;;;;;;9.07;3.77;;;11.10;99.90;;;;;;5007714;28;20988;-52
2022/05/14 01:21:29;;;;;;;7.80;4.20;;;11.10;99.90;;;;;;4997652;28;20583;-53
2022/05/14 01:26:48;;;;;;;14.37;3.50;;;11.10;99.90;;;;;;5005545;28;20553;-52
2022/05/14 01:29:19;;;;;;;5.30;3.80;;;11.10;99.90;;;;;;4996274;28;20519;-51
2022/05/14 01:31:46;;;;;;;4.40;3.90;;;11.20;99.90;;;;;;5002391;28;20460;-52
2022/05/14 01:34:18;;;;;;;9.53;3.90;;;11.20;99.90;;;;;;5006752;28;20675;-51
2022/05/14 01:36:45;;;;;;;4.83;3.43;;;11.20;99.90;;;;;;4995303;28;20516;-52
2022/05/14 01:39:12;;;;;;;5.47;3.20;;;11.20;99.90;;;;;;4999949;28;20461;-53
2022/05/14 01:41:38;;;;;;;6.30;3.30;;;11.20;99.90;;;;;;4999735;28;20463;-52
2022/05/14 01:44:07;;;;;;;9.97;3.80;;;11.20;99.90;;;;;;5010065;28;20451;-51
2022/05/14 01:46:34;;;;;;;10.63;3.70;;;11.20;99.90;;;;;;5005641;28;20894;-52
2022/05/14 01:49:01;;;;;;;7.23;3.73;;;11.30;99.90;;;;;;5005844;28;20452;-52
2022/05/14 01:51:29;;;;;;;4.60;3.50;;;11.30;99.90;;;;;;5005380;28;20461;-52
2022/05/14 01:53:56;;;;;;;7.33;3.80;;;11.30;99.90;;;;;;5003878;28;20559;-52
2022/05/14 01:56:23;;;;;;;5.47;3.60;;;11.30;99.90;;;;;;5003033;28;20542;-53
2022/05/14 01:58:50;;;;;;;3.40;3.10;;;11.30;99.90;;;;;;5006796;28;20951;-53
2022/05/14 02:01:20;;;;;;;7.43;3.80;;;11.40;99.90;;;;;;5005611;28;20554;-52
2022/05/14 02:03:49;;;;;;;4.87;3.40;;;11.40;99.90;;;;;;5007659;28;20471;-52
2022/05/14 02:06:16;;;;;;;9.70;3.43;;;11.40;99.90;;;;;;5006956;28;20518;-51
2022/05/14 02:08:43;;;;;;;5.20;4.00;;;11.40;99.90;;;;;;4999614;28;20467;-52
2022/05/14 02:11:10;;;;;;;7.17;4.10;;;11.40;99.90;;;;;;4996727;28;20585;-52
2022/05/14 02:13:38;;;;;;;12.17;3.97;;;11.40;99.90;;;;;;5003047;28;20463;-52
2022/05/14 02:16:05;;;;;;;8.23;3.60;;;11.40;99.90;;;;;;5015506;28;20475;-53
2022/05/14 02:18:33;;;;;;;5.40;3.20;;;11.50;99.90;;;;;;5007539;28;21008;-51
2022/05/14 02:21:00;;;;;;;7.30;3.50;;;11.50;99.90;;;;;;5000781;28;20495;-53
2022/05/14 02:23:27;;;;;;;8.57;3.80;;;11.50;99.90;;;;;;5001129;28;20522;-51
2022/05/14 02:25:54;;;;;;;13.53;3.87;;;11.50;99.90;;;;;;5004609;28;20537;-53
2022/05/14 02:28:21;;;;;;;7.10;3.80;;;11.50;99.90;;;;;;5011404;28;20517;-52
2022/05/14 02:30:47;;;;;;;4.00;3.50;;;11.50;99.90;;;;;;5004885;28;20480;-51
2022/05/14 02:33:14;;;;;;;9.70;3.40;;;11.50;99.90;;;;;;4999491;28;20472;-53
2022/05/14 02:35:43;;;;;;;5.70;3.50;;;11.50;99.90;;;;;;4997182;28;20476;-52
2022/05/14 02:38:44;;;;;;;4.30;3.37;;;11.50;99.90;;;;;;5005450;28;20468;-53
2022/05/14 02:41:12;;;;;;;7.90;4.00;;;11.50;99.90;;;;;;4998785;28;20574;-52
2022/05/14 02:43:38;;;;;;;5.07;3.47;;;11.50;99.90;;;;;;5006809;28;20953;-52
2022/05/14 02:46:06;;;;;;;4.60;2.90;;;11.50;99.90;;;;;;5009562;28;21041;-52
2022/05/14 02:48:33;;;;;;;7.17;3.73;;;11.40;99.90;;;;;;5011706;28;20539;-52
2022/05/14 02:51:02;;;;;;;5.83;3.23;;;11.40;99.90;;;;;;5000104;28;20563;-53
2022/05/14 02:53:29;;;;;;;3.20;3.00;;;11.30;99.90;;;;;;5003357;28;20560;-52
2022/05/14 02:55:56;;;;;;;8.90;3.33;;;11.20;99.90;;;;;;5002979;28;20621;-52
2022/05/14 03:01:03;;;;;;;5.87;3.27;;;11.10;99.90;;;;;;5000798;28;20563;-52
2022/05/14 03:03:30;;;;;;;6.97;3.87;;;11.00;99.90;;;;;;5001756;28;20461;-52
2022/05/14 03:05:56;;;;;;;6.07;3.60;;;10.90;99.90;;;;;;5002690;28;20463;-53
2022/05/14 03:08:24;;;;;;;5.33;4.40;;;10.90;99.90;;;;;;5001371;28;20571;-52
2022/05/14 03:10:51;;;;;;;6.10;3.30;;;10.80;99.90;;;;;;5003401;28;20610;-51
2022/05/14 03:13:17;;;;;;;7.10;3.80;;;10.70;99.90;;;;;;5003105;28;20560;-51
2022/05/14 03:15:44;;;;;;;5.00;3.00;;;10.70;99.90;;;;;;5003085;28;20551;-52
2022/05/14 03:18:10;;;;;;;5.97;3.37;;;10.70;99.90;;;;;;4997208;28;20564;-51
2022/05/14 03:20:37;;;;;;;8.13;3.40;;;10.70;99.90;;;;;;5003943;28;20586;-52
2022/05/14 03:23:04;;;;;;;5.57;3.50;;;10.60;99.90;;;;;;5004010;28;20510;-52
2022/05/14 03:25:31;;;;;;;9.60;3.67;;;10.60;99.90;;;;;;5008338;28;20563;-52
2022/05/14 03:27:58;;;;;;;5.27;4.27;;;10.60;99.90;;;;;;5005277;28;20542;-52
2022/05/14 03:30:25;;;;;;;5.70;3.00;;;10.60;99.90;;;;;;5007727;28;20666;-53
2022/05/14 03:32:51;;;;;;;9.57;4.60;;;10.60;99.90;;;;;;4999837;28;20982;-53
2022/05/14 03:35:18;;;;;;;4.13;3.30;;;10.60;99.90;;;;;;5006198;28;20557;-52
2022/05/14 03:37:44;;;;;;;8.27;4.53;;;10.50;99.90;;;;;;5008257;28;20571;-52
2022/05/14 03:40:12;;;;;;;4.50;3.67;;;10.50;99.90;;;;;;5006387;28;20558;-52
2022/05/14 03:42:40;;;;;;;3.40;3.20;;;10.40;99.90;;;;;;5002368;28;20555;-52
2022/05/14 03:45:07;;;;;;;4.93;3.80;;;10.40;99.90;;;;;;4995929;28;20873;-53
2022/05/14 03:47:34;;;;;;;7.40;3.70;;;10.40;99.90;;;;;;5003988;28;21006;-54
2022/05/14 03:50:01;;;;;;;15.00;4.00;;;10.40;99.90;;;;;;4999564;28;20579;-54
2022/05/14 03:52:27;;;;;;;14.77;4.80;;;10.40;99.90;;;;;;5004674;28;20542;-54
2022/05/14 03:54:54;;;;;;;4.80;3.00;;;10.40;99.90;;;;;;5005003;28;20525;-53
2022/05/14 03:57:20;;;;;;;5.90;3.70;;;10.50;99.90;;;;;;5010895;28;20570;-53
2022/05/14 03:59:48;;;;;;;9.93;4.47;;;10.50;99.90;;;;;;5002237;28;20483;-53
2022/05/14 04:02:15;;;;;;;5.10;3.50;;;10.50;99.90;;;;;;4998829;28;20518;-54
2022/05/14 04:04:43;;;;;;;5.20;3.03;;;10.50;99.90;;;;;;5000769;28;20460;-53
2022/05/14 04:07:10;;;;;;;10.70;3.97;;;10.50;99.90;;;;;;5009443;28;20492;-52
2022/05/14 04:09:36;;;;;;;4.20;3.60;;;10.60;99.90;;;;;;4998598;28;20480;-52
2022/05/14 04:12:04;;;;;;;4.77;3.43;;;10.70;99.90;;;;;;5014217;28;20534;-53
2022/05/14 04:14:30;;;;;;;5.23;3.77;;;10.70;99.90;;;;;;5001732;28;20563;-52
2022/05/14 04:16:59;;;;;;;6.60;3.67;;;10.70;99.90;;;;;;5008603;28;21169;-54
2022/05/14 04:19:26;;;;;;;8.90;3.80;;;10.80;99.90;;;;;;4998506;28;20582;-52
2022/05/14 04:21:52;;;;;;;5.87;3.30;;;10.80;99.90;;;;;;4996976;28;20834;-54
2022/05/14 04:24:19;;;;;;;7.73;3.73;;;10.90;99.90;;;;;;5006515;28;20542;-54
2022/05/14 04:26:45;;;;;;;6.53;4.30;;;11.00;99.90;;;;;;5001116;28;20556;-53
2022/05/14 04:29:12;;;;;;;7.43;3.60;;;11.00;99.90;;;;;;5004820;28;20550;-52
2022/05/14 04:31:40;;;;;;;7.47;3.60;;;11.10;99.90;;;;;;5006280;28;20575;-53
2022/05/14 04:34:08;;;;;;;8.30;4.00;;;11.10;99.90;;;;;;5004323;28;20979;-53
2022/05/14 04:36:35;;;;;;;8.30;3.67;;;11.20;99.90;;;;;;5013519;28;20570;-53
2022/05/14 04:39:01;;;;;;;5.10;3.20;;;11.30;99.90;;;;;;5001200;28;20455;-52
2022/05/14 04:41:30;;;;;;;10.47;3.87;;;11.30;99.90;;;;;;5009203;28;20521;-53
2022/05/14 04:43:57;;;;;;;3.73;3.30;;;11.40;99.90;;;;;;5005102;28;20486;-53
2022/05/14 04:46:23;;;;;;;6.10;3.40;;;11.40;99.90;;;;;;5001459;28;20559;-53
2022/05/14 04:48:50;;;;;;;4.97;3.10;;;11.50;99.90;;;;;;5001008;28;20550;-53
2022/05/14 04:51:18;;;;;;;5.97;4.67;;;11.50;99.90;;;;;;5001612;28;20486;-53
2022/05/14 04:53:45;;;;;;;5.90;3.90;;;11.50;99.90;;;;;;5008278;28;21047;-52
2022/05/14 04:56:11;;;;;;;5.03;3.90;;;11.60;99.90;;;;;;5000107;28;20558;-52
2022/05/14 04:58:38;;;;;;;8.67;3.50;;;11.60;99.90;;;;;;5004124;28;22027;-52
2022/05/14 05:01:04;;;;;;;7.03;3.40;;;11.70;99.90;;;;;;5003991;28;20567;-53
2022/05/14 05:03:30;;;;;;;6.07;3.50;;;11.80;99.90;;;;;;5002924;28;20555;-52
2022/05/14 05:05:59;;;;;;;4.37;3.97;;;11.80;99.90;;;;;;5003236;28;20530;-52
2022/05/14 05:08:33;;;;;;;9.90;3.73;;;11.90;99.90;;;;;;5008148;28;20197;-52
2022/05/14 05:11:00;;;;;;;3.87;3.30;;;11.90;99.90;;;;;;5009399;28;20582;-52
2022/05/14 05:13:29;;;;;;;7.70;3.47;;;12.00;99.90;;;;;;5000669;28;20560;-52
2022/05/14 05:15:56;;;;;;;4.70;3.37;;;12.00;99.90;;;;;;5005685;28;20498;-52
2022/05/14 05:18:23;;;;;;;6.70;3.53;;;12.10;99.90;;;;;;4997643;28;20571;-52
2022/05/14 05:20:52;;;;;;;6.93;3.87;;;12.20;99.90;;;;;;5004802;28;20583;-52
2022/05/14 05:23:21;;;;;;;7.37;3.93;;;12.30;99.90;;;;;;4996635;28;20529;-52
2022/05/14 05:25:49;;;;;;;5.23;3.20;;;12.30;99.90;;;;;;5004630;28;20546;-52
2022/05/14 05:28:16;;;;;;;8.47;3.50;;;12.40;99.90;;;;;;5002783;28;20470;-52
2022/05/14 05:30:43;;;;;;;11.87;3.33;;;12.40;99.90;;;;;;5003316;28;20563;-52
2022/05/14 05:33:11;;;;;;;11.07;4.33;;;12.50;99.90;;;;;;5004003;28;20846;-53
2022/05/14 05:35:38;;;;;;;8.37;4.27;;;12.60;99.90;;;;;;5004899;28;20554;-52
2022/05/14 05:38:05;;;;;;;16.67;4.27;;;12.60;99.90;;;;;;5001387;28;22716;-52
2022/05/14 05:40:33;;;;;;;11.07;3.47;;;12.70;99.90;;;;;;5004202;28;20570;-52
2022/05/14 05:43:01;;;;;;;11.23;4.07;;;12.70;99.90;;;;;;5001090;28;20478;-52
2022/05/14 05:45:27;;;;;;;10.20;3.53;;;12.80;99.90;;;;;;4999817;28;20860;-52
2022/05/14 05:47:54;;;;;;;12.63;3.70;;;12.80;99.90;;;;;;5003133;28;20479;-52
2022/05/14 05:50:20;;;;;;;6.30;2.63;;;12.80;99.90;;;;;;5002654;28;20575;-53
2022/05/14 05:52:47;;;;;;;10.70;3.90;;;12.80;99.90;;;;;;5001700;28;20551;-52
2022/05/14 05:57:58;;;;;;;5.13;3.87;;;12.90;99.90;;;;;;5005787;28;20952;-53
2022/05/14 06:00:28;;;;;;;11.23;4.33;;;12.90;99.90;;;;;;5004575;28;20484;-53
2022/05/14 06:02:55;;;;;;;8.73;3.83;;;13.00;99.90;;;;;;5000707;28;20460;-52
2022/05/14 06:05:22;;;;;;;9.47;4.20;;;13.10;99.90;;;;;;5002250;28;20554;-52
2022/05/14 06:07:48;;;;;;;13.47;4.30;;;13.10;99.90;;;;;;4998358;28;20460;-52
2022/05/14 06:10:18;;;;;;;13.43;3.90;;;13.30;99.90;;;;;;5008457;28;20512;-52
2022/05/14 06:12:46;;;;;;;4.43;3.10;;;13.40;99.90;;;;;;5005758;28;20562;-53
2022/05/14 06:15:15;;;;;;;6.77;3.30;;;13.50;99.90;;;;;;4997171;28;20460;-52
2022/05/14 06:17:44;;;;;;;12.43;3.77;;;13.60;99.90;;;;;;5005188;28;20562;-57
2022/05/14 06:20:14;;;;;;;11.10;3.50;;;13.70;99.90;;;;;;4999850;28;20488;-52
2022/05/14 06:22:41;;;;;;;6.80;3.43;;;13.80;99.90;;;;;;5008397;28;20547;-53
2022/05/14 06:25:09;;;;;;;15.10;3.73;;;13.80;99.90;;;;;;5003057;28;20467;-52
2022/05/14 06:27:36;;;;;;;9.03;3.10;;;13.90;78.00;;;;;;5006665;28;20608;-52
2022/05/14 06:30:02;;;;;;;7.23;3.60;;;14.00;20.30;;;;;;5001701;28;20516;-53
2022/05/14 06:32:29;;;;;;;9.00;3.90;;;14.00;26.50;;;;;;5002261;28;21192;-53
2022/05/14 06:34:57;;;;;;;8.43;3.20;;;14.00;22.70;;;;;;5001212;28;20811;-52
2022/05/14 06:37:23;;;;;;;6.07;3.50;;;14.10;26.10;;;;;;5005412;28;20491;-51
2022/05/14 06:39:50;;;;;;;10.83;4.43;;;14.20;21.40;;;;;;5002141;28;21019;-53
2022/05/14 06:42:18;;;;;;;11.40;3.87;;;14.20;27.80;;;;;;5009265;28;20552;-53
2022/05/14 06:44:44;;;;;;;8.57;4.13;;;14.30;24.50;;;;;;5005848;28;20499;-53
2022/05/14 06:47:11;;;;;;;12.30;3.30;;;14.30;30.70;;;;;;5006530;28;20552;-53
2022/05/14 06:49:38;;;;;;;12.90;4.53;;;14.30;30.40;;;;;;5002380;28;20490;-52
2022/05/14 06:52:08;;;;;;;10.23;3.90;;;14.40;31.00;;;;;;4996962;28;20910;-53
2022/05/14 06:54:37;;;;;;;10.77;4.33;;;14.40;32.40;;;;;;5004327;28;20566;-52
2022/05/14 06:57:05;;;;;;;16.23;4.03;;;14.50;36.00;;;;;;5007401;28;20483;-53
2022/05/14 06:59:33;;;;;;;10.80;3.40;;;14.50;38.50;;;;;;4999783;28;20539;-53
2022/05/14 07:02:00;;;;;;;10.50;4.30;;;14.50;39.30;;;;;;4999211;28;20900;-52
2022/05/14 07:07:12;;;;;;;8.77;3.93;;;14.50;37.10;;;;;;4999943;28;20454;-51
2022/05/14 07:09:39;;;;;;;9.53;4.80;;;14.50;32.70;;;;;;5005340;28;20566;-52
2022/05/14 07:12:09;;;;;;;10.10;4.93;;;14.60;35.50;;;;;;5002278;28;20559;-53
2022/05/14 07:14:39;;;;;;;14.80;6.47;;;14.60;41.00;;;;;;5002039;28;20992;-52
2022/05/14 07:17:06;;;;;;;10.67;3.73;;;14.60;41.00;;;;;;5005933;28;20479;-52
2022/05/14 07:19:33;;;;;;;10.80;5.30;;;14.60;40.80;;;;;;5004380;28;20495;-52
2022/05/14 07:22:00;;;;;;;14.83;7.07;;;14.50;39.30;;;;;;5000971;28;20555;-53
2022/05/14 07:24:30;;;;;;;13.00;5.30;;;14.50;35.80;;;;;;5001360;28;20890;-52
2022/05/14 07:26:59;;;;;;;10.30;4.60;;;14.60;36.40;;;;;;5003484;28;20539;-52
2022/05/14 07:29:27;;;;;;;16.30;4.47;;;14.60;35.90;;;;;;4996777;28;20575;-53
2022/05/14 07:31:54;;;;;;;9.27;4.10;;;14.60;34.10;;;;;;5001803;28;21012;-52
2022/05/14 07:34:22;;;;;;;11.20;4.27;;;14.60;33.90;;;;;;5003161;28;20875;-52
2022/05/14 07:36:54;;;;;;;7.83;4.23;;;14.70;35.00;;;;;;4996671;28;20462;-53
2022/05/14 07:39:25;;;;;;;10.73;4.43;;;14.70;38.30;;;;;;4996789;28;20471;-52
2022/05/14 07:41:56;;;;;;;17.23;5.27;;;14.70;31.80;;;;;;4994613;28;20539;-53
2022/05/14 07:44:26;;;;;;;10.93;4.67;;;14.80;35.40;;;;;;5006277;28;20551;-51
2022/05/14 07:46:53;;;;;;;9.93;3.90;;;14.80;35.60;;;;;;5007851;28;20521;-54
2022/05/14 07:49:23;;;;;;;6.30;3.40;;;14.80;34.10;;;;;;5005173;28;20479;-52
2022/05/14 07:51:51;;;;;;;5.47;3.50;;;14.80;34.00;;;;;;5004010;28;20461;-52
2022/05/14 07:54:18;;;;;;;17.37;4.70;;;14.90;32.40;;;;;;5005091;28;20534;-52
2022/05/14 07:56:44;;;;;;;8.67;3.27;;;15.00;28.40;;;;;;5000390;28;20474;-52
2022/05/14 07:59:12;;;;;;;9.67;3.70;;;15.10;36.00;;;;;;5000523;28;20487;-52
2022/05/14 08:01:40;;;;;;;10.30;3.93;;;15.20;36.20;;;;;;4998020;28;20977;-52
2022/05/14 08:04:07;;;;;;;13.07;4.80;;;15.20;40.80;;;;;;4999859;28;20465;-53
2022/05/14 08:06:34;;;;;;;9.00;4.07;;;15.30;45.10;;;;;;5005290;28;20498;-53
2022/05/14 08:09:00;;;;;;;12.70;3.80;;;15.40;40.80;;;;;;5005383;28;20462;-52
2022/05/14 08:11:27;;;;;;;8.90;4.77;;;15.40;43.70;;;;;;4997887;28;20808;-52
2022/05/14 08:13:54;;;;;;;17.23;5.03;;;15.40;48.60;;;;;;4999358;28;20524;-53
2022/05/14 08:16:23;;;;;;;13.20;4.80;;;15.40;51.50;;;;;;5003634;28;20586;-53
2022/05/14 08:18:50;;;;;;;12.80;4.50;;;15.50;50.20;;;;;;5008662;28;20504;-53
2022/05/14 08:26:45;;;;;;;13.30;4.70;;;15.50;47.40;;;;;;5002868;28;20505;-53
2022/05/14 08:29:11;;;;;;;9.63;4.47;;;15.60;44.00;;;;;;5001072;28;20466;-53
2022/05/14 08:31:39;;;;;;;12.27;4.47;;;15.70;50.80;;;;;;4999815;28;20452;-53
2022/05/14 08:34:06;;;;;;;14.23;5.63;;;15.70;50.20;;;;;;4991246;28;20482;-52
2022/05/14 08:36:32;;;;;;;10.70;4.17;;;15.80;55.30;;;;;;5004423;28;20554;-52
2022/05/14 08:38:59;;;;;;;10.47;4.97;;;15.90;49.50;;;;;;4999447;28;20574;-51
2022/05/14 08:41:25;;;;;;;14.50;5.53;;;15.90;52.80;;;;;;4998117;28;21020;-52
2022/05/14 08:43:55;;;;;;;14.97;4.73;;;16.00;56.80;;;;;;4998022;28;20464;-52
2022/05/14 08:46:25;;;;;;;16.87;5.00;;;16.10;64.90;;;;;;5003406;28;20483;-52
2022/05/14 08:48:56;;;;;;;11.50;4.70;;;16.10;69.80;;;;;;4993974;28;20851;-52
2022/05/14 08:51:25;;;;;;;212.63;16.87;;;16.30;65.10;;;;;;4994341;28;20583;-52
2022/05/14 08:53:52;;;;;;;106.77;8.73;;;16.40;76.30;;;;;;4992855;28;20556;-51
2022/05/14 08:56:38;;;;;;;20.77;5.00;;;16.50;87.10;;;;;;4994217;28;20456;-53
2022/05/14 08:59:30;;;;;;;19.37;4.60;;;16.50;91.50;;;;;;4992391;28;20527;-54
2022/05/14 09:02:01;;;;;;;10.60;3.97;;;16.60;94.60;;;;;;4993975;28;20539;-52
2022/05/14 09:04:29;;;;;;;11.83;4.63;;;16.60;95.20;;;;;;4998735;28;20487;-53
2022/05/14 09:06:55;;;;;;;12.07;4.00;;;16.70;92.80;;;;;;4996949;28;20577;-53
2022/05/14 09:09:22;;;;;;;13.93;4.20;;;16.90;99.80;;;;;;4997626;28;20472;-52
2022/05/14 09:11:54;;;;;;;10.63;4.13;;;16.90;99.90;;;;;;4990988;28;20461;-52
2022/05/14 09:14:28;;;;;;;17.43;4.20;;;17.00;99.90;;;;;;4991214;28;20958;-52
2022/05/14 09:17:08;;;;;;;15.90;4.40;;;17.10;99.80;;;;;;5001084;28;20462;-53
2022/05/14 09:19:39;;;;;;;10.27;4.37;;;17.20;99.90;;;;;;4997674;28;20491;-52
2022/05/14 09:22:17;;;;;;;13.60;3.90;;;17.20;99.90;;;;;;4998694;28;20986;-53
2022/05/14 09:24:47;;;;;;;16.07;4.43;;;17.50;99.90;;;;;;4998501;28;20547;-54
2022/05/14 09:27:22;;;;;;;13.10;4.47;;;17.70;99.90;;;;;;5008716;28;20551;-52
2022/05/14 09:29:53;;;;;;;19.93;4.80;;;17.90;99.90;;;;;;5007022;28;20478;-54
2022/05/14 09:32:31;;;;;;;19.40;4.57;;;18.10;99.90;;;;;;5001780;28;20551;-53
2022/05/14 09:35:12;;;;;;;9.20;3.60;;;18.10;99.90;;;;;;4990495;28;20455;-53
2022/05/14 09:37:39;;;;;;;14.33;4.97;;;18.10;99.90;;;;;;4999922;28;20511;-52
2022/05/14 09:40:12;;;;;;;13.47;4.40;;;18.20;99.90;;;;;;4997537;28;20630;-53
2022/05/14 09:42:42;;;;;;;10.60;4.63;;;18.50;99.90;;;;;;4992338;28;20472;-54
2022/05/14 09:45:21;;;;;;;14.87;4.07;;;18.70;99.90;;;;;;5001071;28;20503;-52
2022/05/14 09:47:48;;;;;;;12.87;4.20;;;18.70;99.90;;;;;;4997246;28;20461;-53
2022/05/14 09:50:20;;;;;;;12.53;3.20;;;18.80;99.90;;;;;;4998958;28;20583;-52
2022/05/14 09:52:57;;;;;;;9.97;3.67;;;18.80;99.90;;;;;;5021670;22;20506;-49
2022/05/14 09:55:34;;;;;;;14.30;4.33;;;18.90;99.90;;;;;;5024424;28;20462;-49
2022/05/14 09:58:04;;;;;;;18.70;4.00;;;19.00;99.90;;;;;;5031841;28;20565;-48
2022/05/14 10:00:38;;;;;;;25.47;3.80;;;19.00;99.90;;;;;;5032713;28;21027;-49
2022/05/14 10:03:38;;;;;;;16.00;3.93;;;19.30;99.90;;;;;;5017171;28;20839;-50
2022/05/14 10:06:20;;;;;;;17.63;4.00;;;19.40;99.90;;;;;;5012310;28;20530;-50
2022/05/14 10:09:03;;;;;;;9.80;3.87;;;19.10;99.90;;;;;;5012247;28;20542;-49
2022/05/14 10:11:33;;;;;;;12.70;4.10;;;19.00;1.40;;;;;;5012184;28;20518;-49
2022/05/14 10:14:11;;;;;;;8.27;3.73;;;18.70;99.90;;;;;;5016381;28;20471;-50
2022/05/14 10:16:46;;;;;;;11.97;4.03;;;18.60;99.90;;;;;;5000567;28;20539;-50
2022/05/14 10:19:29;;;;;;;17.00;4.30;;;18.80;99.90;;;;;;5002858;28;20581;-49
2022/05/14 10:22:07;;;;;;;10.17;4.27;;;18.70;99.90;;;;;;5031728;28;20516;-49
2022/05/14 10:27:47;;;;;;;11.80;3.10;;;18.90;99.90;;;;;;5008901;28;20451;-49
2022/05/14 10:30:17;;;;;;;11.60;3.73;;;18.60;99.90;;;;;;5010761;28;20553;-50
2022/05/14 10:32:46;;;;;;;12.00;3.90;;;18.40;99.90;;;;;;5017291;28;20541;-49
2022/05/14 10:35:19;;;;;;;12.10;4.40;;;18.50;99.90;;;;;;5011372;28;20563;-49
2022/05/14 10:37:53;;;;;;;10.43;3.57;;;18.60;99.90;;;;;;5012779;28;20451;-49
2022/05/14 10:40:25;;;;;;;12.33;4.40;;;18.70;99.90;;;;;;5017525;28;20546;-50
2022/05/14 10:43:03;;;;;;;12.40;3.73;;;18.80;99.90;;;;;;5021324;28;20553;-49
2022/05/14 10:45:33;;;;;;;9.70;3.20;;;19.00;99.90;;;;;;5007575;28;20547;-49
2022/05/14 10:48:10;;;;;;;11.20;3.23;;;19.20;99.90;;;;;;5010998;28;20498;-50
2022/05/14 10:50:37;;;;;;;13.17;4.10;;;19.10;99.90;;;;;;5005232;28;20547;-50
2022/05/14 10:53:08;;;;;;;9.73;3.53;;;18.90;99.90;;;;;;5010693;28;21079;-49
2022/05/14 10:55:45;;;;;;;16.90;4.00;;;18.70;99.90;;;;;;5007285;28;20500;-50
2022/05/14 10:58:22;;;;;;;15.80;4.33;;;18.70;99.90;;;;;;4997923;28;21004;-49
2022/05/14 11:00:48;;;;;;;14.43;3.23;;;19.10;99.90;;;;;;5017595;28;20513;-49
2022/05/14 11:03:23;;;;;;;11.80;3.77;;;19.50;99.90;;;;;;5018891;28;20559;-50
2022/05/14 11:05:55;;;;;;;21.20;4.03;;;19.50;99.90;;;;;;5010862;28;20550;-49
2022/05/14 11:08:32;;;;;;;7.37;3.70;;;19.50;99.90;;;;;;5011766;28;20538;-49
2022/05/14 11:11:06;;;;;;;16.63;4.30;;;19.50;99.90;;;;;;5030839;28;20446;-50
2022/05/14 11:13:34;;;;;;;18.37;4.53;;;19.40;99.90;;;;;;5020684;28;20619;-50
2022/05/14 11:16:03;;;;;;;11.00;4.10;;;19.30;99.90;;;;;;5010933;28;20506;-50
2022/05/14 11:18:29;;;;;;;21.33;4.90;;;19.20;99.90;;;;;;5011172;28;20522;-49
2022/05/14 11:20:59;;;;;;;10.53;3.30;;;19.10;99.90;;;;;;5020666;28;20564;-49
2022/05/14 11:23:26;;;;;;;17.23;3.60;;;18.90;99.90;;;;;;5007187;28;20514;-49
2022/05/14 11:26:11;;;;;;;13.47;4.30;;;18.90;99.90;;;;;;5009472;28;20541;-50
2022/05/14 11:28:38;;;;;;;17.93;4.20;;;18.90;99.90;;;;;;5009364;28;21568;-49
2022/05/14 11:31:16;;;;;;;11.97;3.30;;;18.90;99.90;;;;;;5019927;28;21005;-49
2022/05/14 11:33:44;;;;;;;13.53;4.07;;;18.90;99.90;;;;;;5010485;28;20506;-49
2022/05/14 11:36:24;;;;;;;13.73;4.20;;;18.90;99.90;;;;;;5011289;28;20506;-49
2022/05/14 11:39:06;;;;;;;15.20;3.77;;;18.90;99.90;;;;;;5007896;28;20565;-49
2022/05/14 11:41:36;;;;;;;10.80;3.73;;;19.00;99.90;;;;;;5020851;28;20550;-50
2022/05/14 11:44:06;;;;;;;25.03;4.90;;;18.90;99.90;;;;;;5011593;28;20464;-49
2022/05/14 11:46:40;;;;;;;17.40;4.43;;;18.80;99.90;;;;;;5011881;28;20491;-50
2022/05/14 11:49:15;;;;;;;13.00;3.30;;;18.90;99.90;;;;;;5001677;28;20522;-50
2022/05/14 11:51:52;;;;;;;15.83;4.73;;;19.20;99.90;;;;;;5025529;28;20525;-51
2022/05/14 11:54:25;;;;;;;9.00;3.60;;;19.40;99.90;;;;;;5000171;28;20542;-50
2022/05/14 11:57:00;;;;;;;11.20;3.87;;;19.40;99.90;;;;;;5011493;28;20535;-50
2022/05/14 11:59:34;;;;;;;10.57;4.30;;;19.20;99.90;;;;;;5007321;28;20577;-50
2022/05/14 12:02:06;;;;;;;12.60;3.83;;;19.00;99.90;;;;;;5007939;28;20537;-49
2022/05/14 12:04:37;;;;;;;11.93;4.10;;;19.00;99.90;;;;;;5011513;28;20546;-49
2022/05/14 12:07:23;;;;;;;15.10;4.10;;;19.10;99.90;;;;;;5010945;28;20461;-49
2022/05/14 12:10:04;;;;;;;12.40;3.10;;;19.10;99.90;;;;;;5009926;28;20543;-50
2022/05/14 12:12:39;;;;;;;19.00;4.03;;;19.00;99.90;;;;;;5017746;28;20571;-49
2022/05/14 12:15:08;;;;;;;9.70;3.33;;;19.00;99.90;;;;;;5006271;28;21032;-49
2022/05/14 12:17:35;;;;;;;9.60;3.10;;;18.90;99.90;;;;;;5003756;28;20463;-50
2022/05/14 12:20:03;;;;;;;15.97;3.83;;;18.90;99.90;;;;;;5005488;28;21301;-50
2022/05/14 12:22:30;;;;;;;7.33;3.50;;;18.90;99.90;;;;;;5003520;28;20565;-50
2022/05/14 12:24:59;;;;;;;14.87;4.70;;;18.90;99.90;;;;;;5008503;28;20471;-49
2022/05/14 12:27:28;;;;;;;9.40;3.97;;;19.10;99.90;;;;;;5031621;28;20534;-49
2022/05/14 12:29:58;;;;;;;9.87;3.90;;;19.40;99.90;;;;;;5031469;28;21007;-50
2022/05/14 12:35:18;;;;;;;15.93;3.50;;;20.10;99.90;;;;;;5016553;28;20477;-49
2022/05/14 12:37:45;;;;;;;12.10;4.20;;;20.40;99.90;;;;;;5011625;28;20517;-49
2022/05/14 12:40:21;;;;;;;11.30;3.20;;;20.30;99.90;;;;;;5011021;28;20603;-49
2022/05/14 12:42:48;;;;;;;9.17;4.23;;;20.30;99.90;;;;;;5007476;28;20562;-50
2022/05/14 12:45:16;;;;;;;13.27;4.30;;;20.40;99.90;;;;;;5018677;28;20470;-49
2022/05/14 12:47:43;;;;;;;11.47;4.97;;;19.80;99.90;;;;;;5019650;28;20562;-50
2022/05/14 12:50:20;;;;;;;9.43;3.70;;;19.90;99.90;;;;;;5010369;28;20551;-49
2022/05/14 12:52:56;;;;;;;19.30;4.80;;;20.10;99.90;;;;;;5008196;28;20570;-50
2022/05/14 12:55:24;;;;;;;16.97;4.33;;;20.10;99.90;;;;;;5020486;28;20949;-49
2022/05/14 12:57:51;;;;;;;9.37;3.43;;;19.90;99.90;;;;;;5012790;28;21012;-49
2022/05/14 13:00:21;;;;;;;14.60;4.40;;;19.60;99.90;;;;;;5014023;28;20689;-49
2022/05/14 13:02:51;;;;;;;13.10;4.77;;;19.60;99.90;;;;;;5010438;28;20483;-49
2022/05/14 13:05:21;;;;;;;15.50;4.07;;;19.60;99.90;;;;;;5022417;28;20460;-49
2022/05/14 13:07:49;;;;;;;15.63;4.40;;;19.70;99.90;;;;;;5009713;28;20544;-50
2022/05/14 13:10:20;;;;;;;21.63;4.70;;;19.70;99.90;;;;;;5014183;28;20538;-49
2022/05/14 13:12:50;;;;;;;14.33;4.30;;;19.70;99.90;;;;;;5010129;28;20570;-50
2022/05/14 13:15:18;;;;;;;13.87;4.07;;;19.60;99.90;;;;;;5019960;28;20551;-49
2022/05/14 13:17:45;;;;;;;12.63;4.10;;;19.80;99.90;;;;;;5013535;28;20527;-49
2022/05/14 13:20:19;;;;;;;9.10;3.53;;;19.80;99.90;;;;;;5014631;28;20575;-50